sensor_id;sensor_type;location;lat;lon;timestamp;P1;durP1;ratioP1;P2;durP2;ratioP2
41480;SDS011;27217;51.220;5.308;2023-02-28T00:00:48;9.45;;;5.63;;
41480;SDS011;27217;51.220;5.308;2023-02-28T00:03:13;12.05;;;5.57;;
41480;SDS011;27217;51.220;5.308;2023-02-28T00:05:39;17.23;;;6.43;;
41480;SDS011;27217;51.220;5.308;2023-02-28T00:08:06;14.45;;;6.57;;
41480;SDS011;27217;51.220;5.308;2023-02-28T00:10:32;12.83;;;7.20;;
41480;SDS011;27217;51.220;5.308;2023-02-28T00:13:02;15.18;;;5.88;;
41480;SDS011;27217;51.220;5.308;2023-02-28T00:15:31;14.07;;;7.67;;
41480;SDS011;27217;51.220;5.308;2023-02-28T00:17:57;14.47;;;7.13;;
41480;SDS011;27217;51.220;5.308;2023-02-28T00:20:23;12.30;;;6.83;;
41480;SDS011;27217;51.220;5.308;2023-02-28T00:22:51;17.07;;;7.27;;
41480;SDS011;27217;51.220;5.308;2023-02-28T00:25:19;13.33;;;6.77;;
41480;SDS011;27217;51.220;5.308;2023-02-28T00:27:47;16.40;;;7.30;;
41480;SDS011;27217;51.220;5.308;2023-02-28T00:30:15;18.67;;;7.80;;
41480;SDS011;27217;51.220;5.308;2023-02-28T00:32:44;11.07;;;6.80;;
41480;SDS011;27217;51.220;5.308;2023-02-28T00:35:11;15.50;;;7.20;;
41480;SDS011;27217;51.220;5.308;2023-02-28T00:37:37;17.37;;;6.93;;
41480;SDS011;27217;51.220;5.308;2023-02-28T00:40:03;15.07;;;7.27;;
41480;SDS011;27217;51.220;5.308;2023-02-28T00:42:31;15.27;;;6.83;;
41480;SDS011;27217;51.220;5.308;2023-02-28T00:44:57;20.47;;;7.73;;
41480;SDS011;27217;51.220;5.308;2023-02-28T00:47:23;17.43;;;8.83;;
41480;SDS011;27217;51.220;5.308;2023-02-28T00:49:49;14.63;;;8.47;;
41480;SDS011;27217;51.220;5.308;2023-02-28T00:52:14;16.00;;;9.37;;
41480;SDS011;27217;51.220;5.308;2023-02-28T00:54:40;13.90;;;8.07;;
41480;SDS011;27217;51.220;5.308;2023-02-28T00:57:06;17.03;;;9.93;;
41480;SDS011;27217;51.220;5.308;2023-02-28T00:59:32;22.83;;;8.93;;
41480;SDS011;27217;51.220;5.308;2023-02-28T01:01:58;23.67;;;9.60;;
41480;SDS011;27217;51.220;5.308;2023-02-28T01:04:24;25.93;;;10.90;;
41480;SDS011;27217;51.220;5.308;2023-02-28T01:06:50;17.97;;;9.03;;
41480;SDS011;27217;51.220;5.308;2023-02-28T01:09:16;22.37;;;10.80;;
41480;SDS011;27217;51.220;5.308;2023-02-28T01:11:42;29.03;;;10.60;;
41480;SDS011;27217;51.220;5.308;2023-02-28T01:14:10;22.50;;;9.90;;
41480;SDS011;27217;51.220;5.308;2023-02-28T01:16:38;26.50;;;10.53;;
41480;SDS011;27217;51.220;5.308;2023-02-28T01:19:05;26.50;;;11.30;;
41480;SDS011;27217;51.220;5.308;2023-02-28T01:21:31;20.43;;;10.60;;
41480;SDS011;27217;51.220;5.308;2023-02-28T01:23:57;19.77;;;10.13;;
41480;SDS011;27217;51.220;5.308;2023-02-28T01:26:23;19.43;;;10.40;;
41480;SDS011;27217;51.220;5.308;2023-02-28T01:28:50;27.03;;;10.00;;
41480;SDS011;27217;51.220;5.308;2023-02-28T01:31:18;24.90;;;10.30;;
41480;SDS011;27217;51.220;5.308;2023-02-28T01:33:45;25.37;;;12.20;;
41480;SDS011;27217;51.220;5.308;2023-02-28T01:36:13;23.43;;;11.27;;
41480;SDS011;27217;51.220;5.308;2023-02-28T01:38:42;19.20;;;8.87;;
41480;SDS011;27217;51.220;5.308;2023-02-28T01:41:09;21.17;;;9.73;;
41480;SDS011;27217;51.220;5.308;2023-02-28T01:46:08;18.43;;;10.07;;
41480;SDS011;27217;51.220;5.308;2023-02-28T01:48:36;22.53;;;9.97;;
41480;SDS011;27217;51.220;5.308;2023-02-28T01:51:12;18.83;;;9.57;;
41480;SDS011;27217;51.220;5.308;2023-02-28T01:53:54;20.87;;;9.47;;
41480;SDS011;27217;51.220;5.308;2023-02-28T01:56:24;21.03;;;9.30;;
41480;SDS011;27217;51.220;5.308;2023-02-28T01:58:54;16.05;;;8.32;;
41480;SDS011;27217;51.220;5.308;2023-02-28T02:01:21;16.53;;;9.47;;
41480;SDS011;27217;51.220;5.308;2023-02-28T02:03:53;19.93;;;9.00;;
41480;SDS011;27217;51.220;5.308;2023-02-28T02:08:50;21.63;;;9.60;;
41480;SDS011;27217;51.220;5.308;2023-02-28T02:11:17;21.40;;;9.67;;
41480;SDS011;27217;51.220;5.308;2023-02-28T02:16:45;21.95;;;10.93;;
41480;SDS011;27217;51.220;5.308;2023-02-28T02:22:27;16.07;;;8.40;;
41480;SDS011;27217;51.220;5.308;2023-02-28T02:35:45;14.00;;;7.87;;
41480;SDS011;27217;51.220;5.308;2023-02-28T02:38:31;16.17;;;7.63;;
41480;SDS011;27217;51.220;5.308;2023-02-28T02:41:14;15.93;;;8.13;;
41480;SDS011;27217;51.220;5.308;2023-02-28T02:46:34;11.30;;;7.40;;
41480;SDS011;27217;51.220;5.308;2023-02-28T02:49:04;19.87;;;8.53;;
41480;SDS011;27217;51.220;5.308;2023-02-28T02:51:34;17.65;;;7.97;;
41480;SDS011;27217;51.220;5.308;2023-02-28T02:54:22;17.57;;;8.13;;
41480;SDS011;27217;51.220;5.308;2023-02-28T02:57:07;14.43;;;8.23;;
41480;SDS011;27217;51.220;5.308;2023-02-28T02:59:38;15.17;;;7.70;;
41480;SDS011;27217;51.220;5.308;2023-02-28T03:02:07;16.33;;;8.60;;
41480;SDS011;27217;51.220;5.308;2023-02-28T03:04:48;18.23;;;8.10;;
41480;SDS011;27217;51.220;5.308;2023-02-28T03:07:28;18.10;;;8.45;;
41480;SDS011;27217;51.220;5.308;2023-02-28T03:09:55;18.33;;;9.13;;
41480;SDS011;27217;51.220;5.308;2023-02-28T03:12:23;17.53;;;7.50;;
41480;SDS011;27217;51.220;5.308;2023-02-28T03:15:15;18.17;;;8.20;;
41480;SDS011;27217;51.220;5.308;2023-02-28T03:23:19;19.73;;;8.23;;
41480;SDS011;27217;51.220;5.308;2023-02-28T03:25:59;18.23;;;8.53;;
41480;SDS011;27217;51.220;5.308;2023-02-28T03:31:19;13.77;;;7.80;;
41480;SDS011;27217;51.220;5.308;2023-02-28T03:33:54;24.00;;;8.03;;
41480;SDS011;27217;51.220;5.308;2023-02-28T03:36:26;18.17;;;8.77;;
41480;SDS011;27217;51.220;5.308;2023-02-28T03:38:58;17.33;;;8.70;;
41480;SDS011;27217;51.220;5.308;2023-02-28T03:41:35;20.07;;;8.93;;
41480;SDS011;27217;51.220;5.308;2023-02-28T03:44:15;15.20;;;7.83;;
41480;SDS011;27217;51.220;5.308;2023-02-28T03:46:51;14.47;;;7.50;;
41480;SDS011;27217;51.220;5.308;2023-02-28T03:49:30;18.77;;;7.83;;
41480;SDS011;27217;51.220;5.308;2023-02-28T03:52:02;18.50;;;7.67;;
41480;SDS011;27217;51.220;5.308;2023-02-28T03:54:33;14.97;;;7.67;;
41480;SDS011;27217;51.220;5.308;2023-02-28T04:00:06;16.00;;;7.87;;
41480;SDS011;27217;51.220;5.308;2023-02-28T04:02:39;28.10;;;8.30;;
41480;SDS011;27217;51.220;5.308;2023-02-28T04:05:06;17.53;;;8.83;;
41480;SDS011;27217;51.220;5.308;2023-02-28T04:07:32;17.03;;;7.13;;
41480;SDS011;27217;51.220;5.308;2023-02-28T04:09:58;18.27;;;7.80;;
41480;SDS011;27217;51.220;5.308;2023-02-28T04:12:24;13.07;;;7.23;;
41480;SDS011;27217;51.220;5.308;2023-02-28T04:14:51;13.93;;;6.87;;
41480;SDS011;27217;51.220;5.308;2023-02-28T04:17:17;16.37;;;8.50;;
41480;SDS011;27217;51.220;5.308;2023-02-28T04:19:43;13.03;;;6.47;;
41480;SDS011;27217;51.220;5.308;2023-02-28T04:22:09;13.23;;;7.07;;
41480;SDS011;27217;51.220;5.308;2023-02-28T04:24:35;19.33;;;8.97;;
41480;SDS011;27217;51.220;5.308;2023-02-28T04:27:01;18.90;;;8.67;;
41480;SDS011;27217;51.220;5.308;2023-02-28T04:29:28;22.40;;;8.37;;
41480;SDS011;27217;51.220;5.308;2023-02-28T04:31:57;15.33;;;7.93;;
41480;SDS011;27217;51.220;5.308;2023-02-28T04:34:25;18.03;;;7.83;;
41480;SDS011;27217;51.220;5.308;2023-02-28T04:36:52;17.73;;;7.73;;
41480;SDS011;27217;51.220;5.308;2023-02-28T04:39:21;18.60;;;8.30;;
41480;SDS011;27217;51.220;5.308;2023-02-28T04:41:48;13.60;;;6.97;;
41480;SDS011;27217;51.220;5.308;2023-02-28T04:44:14;16.10;;;8.60;;
41480;SDS011;27217;51.220;5.308;2023-02-28T04:46:40;24.83;;;8.90;;
41480;SDS011;27217;51.220;5.308;2023-02-28T04:49:08;17.60;;;8.20;;
41480;SDS011;27217;51.220;5.308;2023-02-28T04:51:36;13.33;;;7.77;;
41480;SDS011;27217;51.220;5.308;2023-02-28T04:54:02;21.43;;;7.57;;
41480;SDS011;27217;51.220;5.308;2023-02-28T04:56:28;15.37;;;8.23;;
41480;SDS011;27217;51.220;5.308;2023-02-28T04:58:54;18.37;;;7.97;;
41480;SDS011;27217;51.220;5.308;2023-02-28T05:03:49;16.30;;;8.20;;
41480;SDS011;27217;51.220;5.308;2023-02-28T05:06:16;15.13;;;7.40;;
41480;SDS011;27217;51.220;5.308;2023-02-28T05:08:44;13.50;;;6.90;;
41480;SDS011;27217;51.220;5.308;2023-02-28T05:11:17;18.27;;;7.80;;
41480;SDS011;27217;51.220;5.308;2023-02-28T05:13:45;16.13;;;7.77;;
41480;SDS011;27217;51.220;5.308;2023-02-28T05:16:11;13.90;;;7.53;;
41480;SDS011;27217;51.220;5.308;2023-02-28T05:18:37;21.53;;;7.70;;
41480;SDS011;27217;51.220;5.308;2023-02-28T05:21:04;15.97;;;8.20;;
41480;SDS011;27217;51.220;5.308;2023-02-28T05:23:30;16.20;;;7.30;;
41480;SDS011;27217;51.220;5.308;2023-02-28T05:25:56;14.23;;;7.67;;
41480;SDS011;27217;51.220;5.308;2023-02-28T05:28:22;14.60;;;8.40;;
41480;SDS011;27217;51.220;5.308;2023-02-28T05:30:48;15.10;;;7.17;;
41480;SDS011;27217;51.220;5.308;2023-02-28T05:33:14;18.10;;;7.43;;
41480;SDS011;27217;51.220;5.308;2023-02-28T05:35:40;13.47;;;7.47;;
41480;SDS011;27217;51.220;5.308;2023-02-28T05:38:07;17.00;;;7.50;;
41480;SDS011;27217;51.220;5.308;2023-02-28T05:40:34;15.73;;;7.37;;
41480;SDS011;27217;51.220;5.308;2023-02-28T05:43:00;17.23;;;8.50;;
41480;SDS011;27217;51.220;5.308;2023-02-28T05:45:26;14.80;;;7.30;;
41480;SDS011;27217;51.220;5.308;2023-02-28T05:47:55;21.90;;;8.63;;
41480;SDS011;27217;51.220;5.308;2023-02-28T05:50:21;13.97;;;7.60;;
41480;SDS011;27217;51.220;5.308;2023-02-28T05:52:51;41.00;;;10.07;;
41480;SDS011;27217;51.220;5.308;2023-02-28T05:55:17;16.80;;;7.67;;
41480;SDS011;27217;51.220;5.308;2023-02-28T05:57:43;16.37;;;7.20;;
41480;SDS011;27217;51.220;5.308;2023-02-28T06:00:09;22.23;;;7.97;;
41480;SDS011;27217;51.220;5.308;2023-02-28T06:02:36;14.33;;;7.73;;
41480;SDS011;27217;51.220;5.308;2023-02-28T06:05:05;19.93;;;7.33;;
41480;SDS011;27217;51.220;5.308;2023-02-28T06:07:36;14.48;;;6.80;;
41480;SDS011;27217;51.220;5.308;2023-02-28T06:10:03;14.50;;;7.10;;
41480;SDS011;27217;51.220;5.308;2023-02-28T06:12:29;14.23;;;7.13;;
41480;SDS011;27217;51.220;5.308;2023-02-28T06:14:54;18.10;;;7.97;;
41480;SDS011;27217;51.220;5.308;2023-02-28T06:17:20;22.33;;;7.57;;
41480;SDS011;27217;51.220;5.308;2023-02-28T06:19:46;17.33;;;7.60;;
41480;SDS011;27217;51.220;5.308;2023-02-28T06:22:13;24.93;;;7.50;;
41480;SDS011;27217;51.220;5.308;2023-02-28T06:24:38;16.97;;;7.53;;
41480;SDS011;27217;51.220;5.308;2023-02-28T06:27:04;17.07;;;8.23;;
41480;SDS011;27217;51.220;5.308;2023-02-28T06:29:31;31.10;;;8.53;;
41480;SDS011;27217;51.220;5.308;2023-02-28T06:31:58;18.37;;;7.83;;
41480;SDS011;27217;51.220;5.308;2023-02-28T06:34:24;12.27;;;7.47;;
41480;SDS011;27217;51.220;5.308;2023-02-28T06:36:50;17.23;;;6.93;;
41480;SDS011;27217;51.220;5.308;2023-02-28T06:39:17;14.87;;;7.47;;
41480;SDS011;27217;51.220;5.308;2023-02-28T06:41:43;12.63;;;6.77;;
41480;SDS011;27217;51.220;5.308;2023-02-28T06:44:19;17.50;;;6.93;;
41480;SDS011;27217;51.220;5.308;2023-02-28T06:46:46;15.70;;;7.60;;
41480;SDS011;27217;51.220;5.308;2023-02-28T06:49:12;13.47;;;6.27;;
41480;SDS011;27217;51.220;5.308;2023-02-28T06:51:38;24.57;;;14.90;;
41480;SDS011;27217;51.220;5.308;2023-02-28T06:54:06;22.83;;;11.77;;
41480;SDS011;27217;51.220;5.308;2023-02-28T06:56:34;14.43;;;7.53;;
41480;SDS011;27217;51.220;5.308;2023-02-28T06:59:00;13.40;;;7.10;;
41480;SDS011;27217;51.220;5.308;2023-02-28T07:01:26;12.80;;;6.27;;
41480;SDS011;27217;51.220;5.308;2023-02-28T07:03:55;15.67;;;6.43;;
41480;SDS011;27217;51.220;5.308;2023-02-28T07:06:21;14.47;;;6.00;;
41480;SDS011;27217;51.220;5.308;2023-02-28T07:08:48;20.03;;;7.43;;
41480;SDS011;27217;51.220;5.308;2023-02-28T07:11:14;9.40;;;5.70;;
41480;SDS011;27217;51.220;5.308;2023-02-28T07:13:40;11.17;;;5.70;;
41480;SDS011;27217;51.220;5.308;2023-02-28T07:16:07;14.50;;;6.50;;
41480;SDS011;27217;51.220;5.308;2023-02-28T07:18:35;13.60;;;6.20;;
41480;SDS011;27217;51.220;5.308;2023-02-28T07:21:02;15.40;;;6.37;;
41480;SDS011;27217;51.220;5.308;2023-02-28T07:23:29;11.43;;;6.00;;
41480;SDS011;27217;51.220;5.308;2023-02-28T07:25:56;12.33;;;5.70;;
41480;SDS011;27217;51.220;5.308;2023-02-28T07:28:22;11.80;;;6.10;;
41480;SDS011;27217;51.220;5.308;2023-02-28T07:30:48;14.40;;;6.50;;
41480;SDS011;27217;51.220;5.308;2023-02-28T07:33:14;12.10;;;5.77;;
41480;SDS011;27217;51.220;5.308;2023-02-28T07:35:40;10.23;;;5.60;;
41480;SDS011;27217;51.220;5.308;2023-02-28T07:38:06;15.53;;;6.43;;
41480;SDS011;27217;51.220;5.308;2023-02-28T07:40:32;15.87;;;6.07;;
41480;SDS011;27217;51.220;5.308;2023-02-28T07:42:59;13.20;;;5.20;;
41480;SDS011;27217;51.220;5.308;2023-02-28T07:45:26;14.07;;;5.97;;
41480;SDS011;27217;51.220;5.308;2023-02-28T07:47:53;10.10;;;5.20;;
41480;SDS011;27217;51.220;5.308;2023-02-28T07:50:20;12.27;;;5.30;;
41480;SDS011;27217;51.220;5.308;2023-02-28T07:52:46;7.37;;;5.03;;
41480;SDS011;27217;51.220;5.308;2023-02-28T07:55:12;8.07;;;5.00;;
41480;SDS011;27217;51.220;5.308;2023-02-28T07:57:38;10.80;;;4.73;;
41480;SDS011;27217;51.220;5.308;2023-02-28T08:00:05;8.87;;;4.63;;
41480;SDS011;27217;51.220;5.308;2023-02-28T08:02:34;10.23;;;4.60;;
41480;SDS011;27217;51.220;5.308;2023-02-28T08:05:00;10.47;;;3.83;;
41480;SDS011;27217;51.220;5.308;2023-02-28T08:07:26;8.27;;;4.33;;
41480;SDS011;27217;51.220;5.308;2023-02-28T08:09:52;8.15;;;4.15;;
41480;SDS011;27217;51.220;5.308;2023-02-28T08:12:18;6.60;;;3.83;;
41480;SDS011;27217;51.220;5.308;2023-02-28T08:14:44;7.13;;;3.63;;
41480;SDS011;27217;51.220;5.308;2023-02-28T08:17:10;5.43;;;3.40;;
41480;SDS011;27217;51.220;5.308;2023-02-28T08:19:37;7.23;;;3.17;;
41480;SDS011;27217;51.220;5.308;2023-02-28T08:22:02;8.17;;;3.47;;
41480;SDS011;27217;51.220;5.308;2023-02-28T08:24:28;7.97;;;3.55;;
41480;SDS011;27217;51.220;5.308;2023-02-28T08:26:54;8.33;;;3.53;;
41480;SDS011;27217;51.220;5.308;2023-02-28T08:29:20;5.87;;;3.60;;
41480;SDS011;27217;51.220;5.308;2023-02-28T08:31:46;7.23;;;3.70;;
41480;SDS011;27217;51.220;5.308;2023-02-28T08:34:13;6.72;;;3.70;;
41480;SDS011;27217;51.220;5.308;2023-02-28T08:36:41;7.93;;;3.07;;
41480;SDS011;27217;51.220;5.308;2023-02-28T08:39:09;6.57;;;3.33;;
41480;SDS011;27217;51.220;5.308;2023-02-28T08:41:35;11.98;;;4.32;;
41480;SDS011;27217;51.220;5.308;2023-02-28T08:44:01;5.32;;;3.47;;
41480;SDS011;27217;51.220;5.308;2023-02-28T08:46:27;7.03;;;3.42;;
41480;SDS011;27217;51.220;5.308;2023-02-28T08:48:54;6.87;;;3.33;;
41480;SDS011;27217;51.220;5.308;2023-02-28T08:51:21;10.30;;;3.87;;
41480;SDS011;27217;51.220;5.308;2023-02-28T08:53:51;6.88;;;3.03;;
41480;SDS011;27217;51.220;5.308;2023-02-28T08:56:19;3.22;;;2.08;;
41480;SDS011;27217;51.220;5.308;2023-02-28T08:58:45;11.68;;;3.13;;
41480;SDS011;27217;51.220;5.308;2023-02-28T09:01:22;5.72;;;3.15;;
41480;SDS011;27217;51.220;5.308;2023-02-28T09:03:50;4.25;;;3.08;;
41480;SDS011;27217;51.220;5.308;2023-02-28T09:06:17;8.23;;;3.25;;
41480;SDS011;27217;51.220;5.308;2023-02-28T09:08:43;4.28;;;3.03;;
41480;SDS011;27217;51.220;5.308;2023-02-28T09:11:09;4.38;;;2.50;;
41480;SDS011;27217;51.220;5.308;2023-02-28T09:13:36;9.10;;;2.58;;
41480;SDS011;27217;51.220;5.308;2023-02-28T09:16:04;6.05;;;2.67;;
41480;SDS011;27217;51.220;5.308;2023-02-28T09:18:33;3.38;;;2.40;;
41480;SDS011;27217;51.220;5.308;2023-02-28T09:21:07;8.65;;;2.42;;
41480;SDS011;27217;51.220;5.308;2023-02-28T09:23:34;5.87;;;2.03;;
41480;SDS011;27217;51.220;5.308;2023-02-28T09:26:03;6.85;;;2.05;;
41480;SDS011;27217;51.220;5.308;2023-02-28T09:28:29;3.05;;;2.30;;
41480;SDS011;27217;51.220;5.308;2023-02-28T09:30:55;3.25;;;2.00;;
41480;SDS011;27217;51.220;5.308;2023-02-28T09:33:22;3.90;;;2.00;;
41480;SDS011;27217;51.220;5.308;2023-02-28T09:35:48;4.93;;;1.83;;
41480;SDS011;27217;51.220;5.308;2023-02-28T09:38:16;7.30;;;2.45;;
41480;SDS011;27217;51.220;5.308;2023-02-28T09:40:53;2.97;;;2.05;;
41480;SDS011;27217;51.220;5.308;2023-02-28T09:43:25;2.53;;;1.75;;
41480;SDS011;27217;51.220;5.308;2023-02-28T09:48:43;7.05;;;2.50;;
41480;SDS011;27217;51.220;5.308;2023-02-28T09:54:09;3.13;;;2.20;;
41480;SDS011;27217;51.220;5.308;2023-02-28T09:56:44;2.85;;;1.92;;
41480;SDS011;27217;51.220;5.308;2023-02-28T10:02:17;2.25;;;1.90;;
41480;SDS011;27217;51.220;5.308;2023-02-28T10:04:56;2.80;;;1.95;;
41480;SDS011;27217;51.220;5.308;2023-02-28T10:10:51;4.80;;;2.30;;
41480;SDS011;27217;51.220;5.308;2023-02-28T10:16:03;5.80;;;1.92;;
41480;SDS011;27217;51.220;5.308;2023-02-28T10:18:42;2.70;;;1.90;;
41480;SDS011;27217;51.220;5.308;2023-02-28T10:21:21;4.00;;;1.85;;
41480;SDS011;27217;51.220;5.308;2023-02-28T10:24:39;3.35;;;1.77;;
41480;SDS011;27217;51.220;5.308;2023-02-28T10:26:43;5.38;;;1.80;;
41480;SDS011;27217;51.220;5.308;2023-02-28T10:29:11;5.60;;;1.83;;
41480;SDS011;27217;51.220;5.308;2023-02-28T10:31:37;4.03;;;1.90;;
41480;SDS011;27217;51.220;5.308;2023-02-28T10:34:04;5.32;;;2.17;;
41480;SDS011;27217;51.220;5.308;2023-02-28T10:36:31;4.82;;;1.95;;
41480;SDS011;27217;51.220;5.308;2023-02-28T10:38:57;9.30;;;1.88;;
41480;SDS011;27217;51.220;5.308;2023-02-28T10:41:29;3.80;;;1.73;;
41480;SDS011;27217;51.220;5.308;2023-02-28T10:46:56;6.93;;;2.30;;
41480;SDS011;27217;51.220;5.308;2023-02-28T10:49:24;3.70;;;1.92;;
41480;SDS011;27217;51.220;5.308;2023-02-28T10:52:02;2.95;;;1.75;;
41480;SDS011;27217;51.220;5.308;2023-02-28T10:54:32;3.92;;;1.90;;
41480;SDS011;27217;51.220;5.308;2023-02-28T10:57:20;7.72;;;2.42;;
41480;SDS011;27217;51.220;5.308;2023-02-28T10:59:52;2.47;;;1.63;;
41480;SDS011;27217;51.220;5.308;2023-02-28T11:02:37;3.38;;;2.20;;
41480;SDS011;27217;51.220;5.308;2023-02-28T11:08:11;4.65;;;1.83;;
41480;SDS011;27217;51.220;5.308;2023-02-28T11:10:53;1.88;;;1.58;;
41480;SDS011;27217;51.220;5.308;2023-02-28T11:13:33;1.50;;;1.40;;
41480;SDS011;27217;51.220;5.308;2023-02-28T11:16:04;3.95;;;1.60;;
41480;SDS011;27217;51.220;5.308;2023-02-28T11:21:24;6.55;;;2.80;;
41480;SDS011;27217;51.220;5.308;2023-02-28T11:24:05;9.00;;;1.52;;
41480;SDS011;27217;51.220;5.308;2023-02-28T11:26:43;2.38;;;1.52;;
41480;SDS011;27217;51.220;5.308;2023-02-28T11:29:21;4.53;;;1.50;;
41480;SDS011;27217;51.220;5.308;2023-02-28T11:32:04;1.98;;;1.70;;
41480;SDS011;27217;51.220;5.308;2023-02-28T11:34:30;3.50;;;1.98;;
41480;SDS011;27217;51.220;5.308;2023-02-28T11:36:58;1.80;;;1.60;;
41480;SDS011;27217;51.220;5.308;2023-02-28T11:39:25;4.55;;;1.70;;
41480;SDS011;27217;51.220;5.308;2023-02-28T11:47:10;3.72;;;2.00;;
41480;SDS011;27217;51.220;5.308;2023-02-28T12:06:13;3.53;;;2.00;;
41480;SDS011;27217;51.220;5.308;2023-02-28T12:09:04;1.80;;;1.58;;
41480;SDS011;27217;51.220;5.308;2023-02-28T12:28:33;3.97;;;2.00;;
41480;SDS011;27217;51.220;5.308;2023-02-28T12:31:08;7.38;;;2.00;;
41480;SDS011;27217;51.220;5.308;2023-02-28T12:33:45;4.22;;;1.73;;
41480;SDS011;27217;51.220;5.308;2023-02-28T12:36:21;1.55;;;1.45;;
41480;SDS011;27217;51.220;5.308;2023-02-28T12:38:50;4.75;;;2.00;;
41480;SDS011;27217;51.220;5.308;2023-02-28T12:44:07;8.82;;;2.25;;
41480;SDS011;27217;51.220;5.308;2023-02-28T12:46:44;3.67;;;2.22;;
41480;SDS011;27217;51.220;5.308;2023-02-28T12:49:56;3.15;;;1.80;;
41480;SDS011;27217;51.220;5.308;2023-02-28T12:52:07;3.90;;;1.88;;
41480;SDS011;27217;51.220;5.308;2023-02-28T12:57:27;4.93;;;2.13;;
41480;SDS011;27217;51.220;5.308;2023-02-28T13:00:00;4.53;;;2.78;;
41480;SDS011;27217;51.220;5.308;2023-02-28T13:08:01;5.10;;;2.03;;
41480;SDS011;27217;51.220;5.308;2023-02-28T13:10:45;3.85;;;2.20;;
41480;SDS011;27217;51.220;5.308;2023-02-28T13:13:19;4.82;;;2.40;;
41480;SDS011;27217;51.220;5.308;2023-02-28T13:16:00;2.58;;;2.00;;
41480;SDS011;27217;51.220;5.308;2023-02-28T13:18:42;5.50;;;1.73;;
41480;SDS011;27217;51.220;5.308;2023-02-28T13:21:29;4.20;;;2.30;;
41480;SDS011;27217;51.220;5.308;2023-02-28T13:23:57;3.08;;;1.88;;
41480;SDS011;27217;51.220;5.308;2023-02-28T13:34:19;5.30;;;2.10;;
41480;SDS011;27217;51.220;5.308;2023-02-28T13:36:46;5.03;;;2.22;;
41480;SDS011;27217;51.220;5.308;2023-02-28T13:42:20;3.50;;;1.90;;
41480;SDS011;27217;51.220;5.308;2023-02-28T13:50:22;3.55;;;1.90;;
41480;SDS011;27217;51.220;5.308;2023-02-28T13:53:38;2.38;;;1.80;;
41480;SDS011;27217;51.220;5.308;2023-02-28T14:01:04;3.72;;;1.75;;
41480;SDS011;27217;51.220;5.308;2023-02-28T14:03:38;8.57;;;2.08;;
41480;SDS011;27217;51.220;5.308;2023-02-28T14:06:31;2.95;;;2.30;;
41480;SDS011;27217;51.220;5.308;2023-02-28T14:11:41;4.13;;;1.90;;
41480;SDS011;27217;51.220;5.308;2023-02-28T14:14:09;3.08;;;2.15;;
41480;SDS011;27217;51.220;5.308;2023-02-28T14:16:57;4.15;;;2.03;;
41480;SDS011;27217;51.220;5.308;2023-02-28T14:19:27;4.82;;;1.98;;
41480;SDS011;27217;51.220;5.308;2023-02-28T14:25:11;4.55;;;1.95;;
41480;SDS011;27217;51.220;5.308;2023-02-28T14:38:25;6.95;;;2.20;;
41480;SDS011;27217;51.220;5.308;2023-02-28T14:40:55;2.10;;;1.83;;
41480;SDS011;27217;51.220;5.308;2023-02-28T14:43:27;2.53;;;1.80;;
41480;SDS011;27217;51.220;5.308;2023-02-28T14:45:54;4.45;;;2.88;;
41480;SDS011;27217;51.220;5.308;2023-02-28T14:48:22;3.30;;;2.17;;
41480;SDS011;27217;51.220;5.308;2023-02-28T14:50:51;3.30;;;1.90;;
41480;SDS011;27217;51.220;5.308;2023-02-28T14:53:20;4.38;;;2.22;;
41480;SDS011;27217;51.220;5.308;2023-02-28T14:55:48;4.05;;;2.15;;
41480;SDS011;27217;51.220;5.308;2023-02-28T14:58:21;7.93;;;2.30;;
41480;SDS011;27217;51.220;5.308;2023-02-28T15:00:57;5.00;;;1.90;;
41480;SDS011;27217;51.220;5.308;2023-02-28T15:06:05;3.55;;;2.28;;
41480;SDS011;27217;51.220;5.308;2023-02-28T15:08:38;5.07;;;2.20;;
41480;SDS011;27217;51.220;5.308;2023-02-28T15:11:08;5.18;;;2.15;;
41480;SDS011;27217;51.220;5.308;2023-02-28T15:13:46;5.15;;;1.90;;
41480;SDS011;27217;51.220;5.308;2023-02-28T15:16:20;9.70;;;2.30;;
41480;SDS011;27217;51.220;5.308;2023-02-28T15:18:51;17.00;;;2.35;;
41480;SDS011;27217;51.220;5.308;2023-02-28T15:24:34;2.88;;;1.98;;
41480;SDS011;27217;51.220;5.308;2023-02-28T15:26:39;4.07;;;1.85;;
41480;SDS011;27217;51.220;5.308;2023-02-28T15:29:25;4.07;;;2.13;;
41480;SDS011;27217;51.220;5.308;2023-02-28T15:31:58;4.20;;;2.00;;
41480;SDS011;27217;51.220;5.308;2023-02-28T15:34:36;4.68;;;2.20;;
41480;SDS011;27217;51.220;5.308;2023-02-28T15:40:04;3.92;;;2.22;;
41480;SDS011;27217;51.220;5.308;2023-02-28T15:42:36;6.80;;;2.17;;
41480;SDS011;27217;51.220;5.308;2023-02-28T15:45:02;3.00;;;2.00;;
41480;SDS011;27217;51.220;5.308;2023-02-28T15:47:29;5.35;;;2.45;;
41480;SDS011;27217;51.220;5.308;2023-02-28T15:52:34;6.63;;;2.50;;
41480;SDS011;27217;51.220;5.308;2023-02-28T15:57:38;10.65;;;2.28;;
41480;SDS011;27217;51.220;5.308;2023-02-28T16:00:05;2.75;;;2.03;;
41480;SDS011;27217;51.220;5.308;2023-02-28T16:02:37;5.82;;;2.45;;
41480;SDS011;27217;51.220;5.308;2023-02-28T16:07:39;4.60;;;2.28;;
41480;SDS011;27217;51.220;5.308;2023-02-28T16:10:08;3.67;;;2.60;;
41480;SDS011;27217;51.220;5.308;2023-02-28T16:12:35;5.22;;;2.55;;
41480;SDS011;27217;51.220;5.308;2023-02-28T16:15:06;5.75;;;2.75;;
41480;SDS011;27217;51.220;5.308;2023-02-28T16:17:45;3.63;;;2.33;;
41480;SDS011;27217;51.220;5.308;2023-02-28T16:20:18;5.95;;;2.60;;
41480;SDS011;27217;51.220;5.308;2023-02-28T16:22:50;3.70;;;2.45;;
41480;SDS011;27217;51.220;5.308;2023-02-28T16:25:17;7.05;;;3.30;;
41480;SDS011;27217;51.220;5.308;2023-02-28T16:27:45;3.65;;;2.25;;
41480;SDS011;27217;51.220;5.308;2023-02-28T16:30:23;6.32;;;2.95;;
41480;SDS011;27217;51.220;5.308;2023-02-28T16:32:51;4.10;;;2.80;;
41480;SDS011;27217;51.220;5.308;2023-02-28T16:35:17;3.50;;;2.70;;
41480;SDS011;27217;51.220;5.308;2023-02-28T16:37:44;18.40;;;2.50;;
41480;SDS011;27217;51.220;5.308;2023-02-28T16:40:17;4.07;;;2.50;;
41480;SDS011;27217;51.220;5.308;2023-02-28T16:42:49;4.03;;;2.42;;
41480;SDS011;27217;51.220;5.308;2023-02-28T16:45:27;4.65;;;2.80;;
41480;SDS011;27217;51.220;5.308;2023-02-28T16:47:55;6.00;;;2.80;;
41480;SDS011;27217;51.220;5.308;2023-02-28T16:50:22;4.60;;;3.00;;
41480;SDS011;27217;51.220;5.308;2023-02-28T16:52:50;6.20;;;2.70;;
41480;SDS011;27217;51.220;5.308;2023-02-28T16:55:19;8.75;;;3.00;;
41480;SDS011;27217;51.220;5.308;2023-02-28T16:57:53;6.95;;;2.88;;
41480;SDS011;27217;51.220;5.308;2023-02-28T17:00:24;5.55;;;3.03;;
41480;SDS011;27217;51.220;5.308;2023-02-28T17:02:51;6.93;;;3.13;;
41480;SDS011;27217;51.220;5.308;2023-02-28T17:05:17;5.53;;;2.88;;
41480;SDS011;27217;51.220;5.308;2023-02-28T17:07:44;6.03;;;2.72;;
41480;SDS011;27217;51.220;5.308;2023-02-28T17:10:12;7.22;;;3.53;;
41480;SDS011;27217;51.220;5.308;2023-02-28T17:12:41;7.70;;;3.63;;
41480;SDS011;27217;51.220;5.308;2023-02-28T17:15:08;10.27;;;4.10;;
41480;SDS011;27217;51.220;5.308;2023-02-28T17:17:35;8.88;;;4.00;;
41480;SDS011;27217;51.220;5.308;2023-02-28T17:20:02;8.93;;;4.18;;
41480;SDS011;27217;51.220;5.308;2023-02-28T17:22:29;6.65;;;3.72;;
41480;SDS011;27217;51.220;5.308;2023-02-28T17:24:55;6.57;;;3.95;;
41480;SDS011;27217;51.220;5.308;2023-02-28T17:27:21;6.78;;;3.80;;
41480;SDS011;27217;51.220;5.308;2023-02-28T17:29:47;12.00;;;4.28;;
41480;SDS011;27217;51.220;5.308;2023-02-28T17:32:13;8.70;;;3.97;;
41480;SDS011;27217;51.220;5.308;2023-02-28T17:34:39;5.70;;;3.45;;
41480;SDS011;27217;51.220;5.308;2023-02-28T17:37:05;6.32;;;3.78;;
41480;SDS011;27217;51.220;5.308;2023-02-28T17:39:33;7.18;;;3.67;;
41480;SDS011;27217;51.220;5.308;2023-02-28T17:42:00;6.65;;;3.67;;